Sunday, August 30, 2015, 11:54 AM EDT

KRIC, Richmond International Airport

Location: Sandston, VA, United States Lat: 37.517
Local Time: 11:54 AM EDT (15:54 GMT) Lon: -77.317
Time Zone: US/Eastern Elev: 167 ft

Show me the last for .
Show Decoded

2015-08-30 10:54 METAR KRIC 301454Z 21005KT 10SM FEW180 BKN250 29/17 A3016 RMK AO2 SLP215
                 T02890167 53004 =
2015-08-30 09:54 METAR KRIC 301354Z 22005KT 10SM SCT180 BKN250 26/17 A3015 RMK AO2 SLP213
                 T02610167 =
2015-08-30 08:54 METAR KRIC 301254Z 22004KT 10SM BKN180 OVC250 23/16 A3015 RMK AO2 SLP213
                 T02330161 =
2015-08-30 06:54 METAR KRIC 301054Z 00000KT 10SM BKN250 20/17 A3014 RMK AO2 SLP208 T02000167 $ =
2015-08-30 05:54 METAR KRIC 300954Z 19003KT 10SM BKN250 19/17 A3012 RMK AO2 SLP202 T01940167 =
2015-08-30 04:54 METAR KRIC 300854Z 21003KT 10SM BKN250 19/17 A3011 RMK AO2 SLP201 T01940167
                 56007 =
2015-08-30 03:54 METAR KRIC 300754Z 21003KT 10SM SCT250 19/16 A3012 RMK AO2 SLP202 T01940161 =
2015-08-30 02:54 METAR KRIC 300654Z 21003KT 10SM SCT230 20/17 A3012 RMK AO2 SLP202 T02000167 =
2015-08-30 00:54 METAR KRIC 300454Z 00000KT 10SM BKN230 21/17 A3015 RMK AO2 SLP212 T02060167
                 403170167 =
2015-08-29 23:54 METAR KRIC 300354Z 00000KT 10SM BKN230 21/16 A3015 RMK AO2 SLP214 T02110161 =
2015-08-29 22:54 METAR KRIC 300254Z 00000KT 10SM BKN220 22/16 A3015 RMK AO2 SLP213 T02170161
                 51012 =
2015-08-29 21:54 METAR KRIC 300154Z 17004KT 10SM BKN200 OVC250 22/17 A3015 RMK AO2 SLP213
                 T02220167 =
2015-08-29 20:54 METAR KRIC 300054Z 15004KT 10SM OVC230 24/17 A3013 RMK AO2 SLP207 T02440172 =
2015-08-29 19:54 METAR KRIC 292354Z 15006KT 10SM FEW180 BKN240 26/18 A3012 RMK AO2 SLP201
                 T02560178 10317 20256 55005 =
2015-08-29 18:54 METAR KRIC 292254Z 15008KT 10SM OVC220 27/17 A3011 RMK AO2 SLP199 T02720172 =
2015-08-29 17:54 METAR KRIC 292154Z 15006KT 10SM OVC220 28/17 A3012 RMK AO2 SLP204 T02830167 =
2015-08-29 16:54 METAR KRIC 292054Z 15008KT 10SM FEW060 OVC250 29/17 A3013 RMK AO2 SLP207
                 T02890167 56017 =
2015-08-29 15:54 METAR KRIC 291954Z 18008KT 10SM FEW060 BKN180 BKN250 31/16 A3014 RMK AO2 SLP210
                 T03060161 =
2015-08-29 14:54 METAR KRIC 291854Z 17005KT 10SM FEW060 SCT150 BKN250 31/16 A3016 RMK AO2 SLP217
                 T03110156 =
2015-08-29 13:54 METAR KRIC 291754Z 27005KT 10SM FEW050 BKN250 31/15 A3018 RMK AO2 SLP224
                 T03060150 10306 20183 58018 =
2015-08-29 12:54 METAR KRIC 291654Z 21006KT 10SM FEW060 BKN250 29/16 A3020 RMK AO2 SLP230
                 T02940161 =

Support USWX by starting your Amazon purchase here.